Northwest Alabama Regional Airport
KMSL : now visible

Aeroporto :











RITROVATECI SU...

 
LOGIN :

Iscrizione | Disclaimer

   EN    FR    IT 

 









Sommario :    VFR   VFR Marginale   IFR   IFR Intensivo   IFR Molto Intensivo
Visibilità : 
Base nubi : 
>= 8 km
>= 3000ft
5 / 8 km
1000 / 3000 ft
1500m / 5 km
500 / 1000 ft
800 / 1500m
200 / 500 ft
< 800m
< 200 ft
Simboli :   Temporali  Nebbia  Neve Forte  Precipitazioni Forti  Vento > 20 kt






- Altitudine del aeroporto : 551 ft
- Codice IATA : MSL


KMSL - Northwest Alabama Regional

ULTIMO METAR :
  • 250953Z AUTO 15007KT 10SM FEW019 24/20 A3012 RMK AO2 SLP192 T02440200

METARs OBSOLETI :
  • 250908Z AUTO 15006KT 10SM BKN021 25/20 A3012 RMK AO2 T02500200
  • 250853Z AUTO 16007KT 10SM SCT022 25/20 A3012 RMK AO2 SLP191 T02500200 53001
  • 250753Z AUTO 16008KT 10SM BKN024 25/20 A3011 RMK AO2 SLP189 T02500200

TAF KMSL
Valido dal 25 a 06 ore il 26 a 06 ore UTC


250520Z 2506/2606 15007KT P6SM SCT040 BKN250
TEMPO 2514/2518 17012G17KT BKN025
FM251800 17012G17KT P6SM SCT040 BKN150
FM252100 16008KT P6SM BKN250
FIR KZME / America del Nord



MetMap, La meteo Aeronautica in un colpo d'occhio ! - Copyright ORBIFLY Dicembre 2007 - Disclaimer

ORBIFLY MET'MAP TEAM :

Programmazione e sviluppo : Alexandra Zaïnal
Concezione : Baudouin d'Aumeries
Aiuto per la programmazione : Marc-Olivier Méhu
Supporto tecnico e logistico : Manuel Goepfert
Aiuto per la traduzione : Arnaldo La Scala

Contatto : metmap@orbifly.com




FONTI E CREDITI :

   NOAA       Earth
Advisory